Archival Weather

Chicago O'Hare International

Chicago, Illinois (KORD)

Report from: Sunday, March 19, 2023 4:51 PM CDT
Current time: Friday, June 21, 2024 8:26 PM CDT

Current weather – Weather history – Daily summaries
Weather forecast

Temperature3.9°C (39.0°F)
Wind chill-0.6°C (31.0°F)
Dew point-11.7°C (10.9°F)
Winds 12 kts (6.2 m/s, 13.8 mph) West-Southwest (240°)
Wind gusts 23 kts (11.8 m/s, 26.5 mph)
Visibility10 mi. (16.1 km)
Clouds Sky clear
Altimeter30.19 in.Hg (1022 mB)
Relative humidity31 %
Density altitude-1,636 ft. (-499 m)
Sea-level pressure102.3 kPa (1023 mB, 30.22 in.Hg)
Remarks System requires maintenance
Automated weather observing station with precipitation discriminator
Flight conditions Visual Meteorological Conditions
Raw dataKORD 192151Z 24012G23KT 10SM CLR 04/M12 A3019 RMK AO2 SLP232 T00391117 $
An error has occurred. This application may no longer respond until reloaded. Reload 🗙